Terminal Aerodrome Forecast
Issued by NWS Charleston, WV

Current Version | Previous Version | Text Only | Print | Product List | Glossary Off
Versions: 1 2 3 4 5 6 7 8 9 10 11 12 13 14 15 16 17 18 19 20

000
FTUS41 KRLX 171400 AAA
TAFPKB
TAF AMD
KPKB 171405Z 1714/1812 00000KT 1SM BR OVC002
     FM171500 VRB03KT 6SM BR SCT004
     FM171600 30004KT P6SM FEW040
     FM180400 30001KT 5SM BR FEW040
     FM180500 00000KT 1/4SM FG BKN002=

USA.gov is the U.S. government's official web portal to all federal, state and local government web resources and services.